Airfield :
LOGIN :

Register | Disclaimer

   EN    FR    IT 

 










Legend :    VFR   Marginal VFR   IFR   Intensive IFR   Very Intensive IFR
Visi :
Ceiling :
>= 8 km
>= 3000ft
5 to 8 km
1000 to 3000 ft
1500m to 5 km
500 to 1000 ft
800 to 1500m
200 to 500 ft
< 800m
< 200 ft
Symbols :   Thunderstorms  Fog  Heavy snow  Heavy precipitations  Wind > 20 kt
SIGMETs :     Misc.  Thunderstorms  Icing  Turbulence  Mountain Waves  Volcanic Ashes






- Airport Elevation : 538 ft
- IATA code : TNF


LFPN - Toussus Le Noble

CURRENT METAR :
  • 201500Z AUTO 17010KT 9999 -RA FEW009 BKN068 OVC086 14/12 Q1008 TEMPO BKN012 BKN025

EXPIRED METARs :
  • 201430Z AUTO 17012KT 9999 -RA FEW043/// BKN064/// BKN076/// ///TCU 14/12 Q1008 TEMPO BKN012 BKN025
  • 201400Z AUTO 17011KT 9999 -RA SCT013 SCT028 BKN074 14/12 Q1008 TEMPO BKN012 BKN025
  • 201330Z AUTO 17012KT 9999 -RA FEW010 BKN066 OVC086 14/12 Q1008 TEMPO BKN012 BKN025
  • 201300Z AUTO 17012KT 9999 -RA NSC 14/12 Q1009 TEMPO BKN012 BKN025
  • 201230Z AUTO 17010KT 9999 -RA NSC 14/12 Q1009 TEMPO BKN012 BKN025

TAF TAF LFPN
Valid from the 20 at 15:00 until the 21 at 00:00 UTC


201400Z 2015/2024 17010KT CAVOK
TEMPO 2015/2021 -RA BKN040
PROB30
TEMPO 2015/2019 -RA BKN012 BKN025
PROB40
TEMPO 2020/2024 4000 RA SCT040 BKN080TCU
ATIS : +33 1 39 56 54 70



MET'MAP, your aeronautical weather chart ! - Copyright ORBIFLY December 2007 - Disclaimer

ORBIFLY MET'MAP TEAM :

Programming & Development : Alexandra Zaïnal
Concept & original design : Baudouin d'Aumeries
Assistance for programming : Marc-Olivier Méhu
Technical & hardware support : Manuel Goepfert

Contact : metmap@orbifly.com




SOURCES & CREDITS :

   NOAA